Airfield :
LOGIN :

Register | Disclaimer

   EN    FR    IT 

 










Legend :    VFR   Marginal VFR   IFR   Intensive IFR   Very Intensive IFR
Visi :
Ceiling :
>= 8 km
>= 3000ft
5 to 8 km
1000 to 3000 ft
1500m to 5 km
500 to 1000 ft
800 to 1500m
200 to 500 ft
< 800m
< 200 ft
Symbols :   Thunderstorms  Fog  Heavy snow  Heavy precipitations  Wind > 20 kt
SIGMETs :     Misc.  Thunderstorms  Icing  Turbulence  Mountain Waves  Volcanic Ashes






- Airport Elevation : 400 ft
- IATA code : BNX


LQBK - Banja Luka

CURRENT METAR :
  • 141100Z 26005KT 220V310 CAVOK 22/09 Q1017 NOSIG

EXPIRED METARs :
  • 141030Z VRB02KT CAVOK 21/10 Q1017 NOSIG
  • 141000Z VRB02KT 9999 SCT047 20/10 Q1017 NOSIG
  • 140930Z VRB02KT 9999 SCT040 21/11 Q1017 NOSIG
  • 140900Z VRB02KT 9999 SCT040 19/10 Q1017 NOSIG
  • 140830Z VRB03KT 9999 FEW040 19/11 Q1018 NOSIG
  • 140800Z 28003KT 230V350 9999 FEW040 18/11 Q1018 NOSIG
  • 140730Z VRB02KT 9999 FEW035 18/12 Q1018 NOSIG
  • 140700Z VRB02KT 9999 FEW030 18/13 Q1018 NOSIG
  • 140630Z VRB02KT 9999 FEW020 16/12 Q1018 NOSIG

TAF AMD TAF LQBK
Valid from the 14 at 08:00 until the 15 at 06:00 UTC


140859Z 1408/1506 33005KT 9999 SCT040 TX24/1413Z TN11/1503Z
PROB30
TEMPO 1502/1506 1200 BCFG



MET'MAP, your aeronautical weather chart ! - Copyright ORBIFLY December 2007 - Disclaimer

ORBIFLY MET'MAP TEAM :

Programming & Development : Alexandra Zaïnal
Original concept : Baudouin d'Aumeries
Technical & hardware support : Manuel Goepfert
Assistance : Marc-Olivier Méhu




SOURCES & CREDITS :

   NOAA